Terminal Aerodrome Forecast
Issued by NWS Knoxville/Tri Cities, TN

Home | Current Version | Previous Version | Text Only | Print | Product List | Glossary On
Versions: 1 2 3 4 5 6 7 8 9 10 11 12 13 14 15 16 17 18 19 20 21 22 23 24 25 26 27 28
000
FTUS44 KMRX 310526
TAFCHA
TAF
KCHA 310526Z 3106/0106 01004KT P6SM SCT150 BKN250
     FM311400 03006KT P6SM SCT050 BKN140 OVC200
     FM312200 02004KT P6SM SCT040 BKN150
     FM010100 03003KT P6SM VCSH SCT040 OVC100=

USA.gov is the U.S. government's official web portal to all federal, state and local government web resources and services.